sensor_id;sensor_type;location;lat;lon;timestamp;P1;durP1;ratioP1;P2;durP2;ratioP2
51780;SDS011;37844;57.126;24.288;2023-08-01T00:01:22;6.43;;;3.85;;
51780;SDS011;37844;57.126;24.288;2023-08-01T00:04:06;5.97;;;4.30;;
51780;SDS011;37844;57.126;24.288;2023-08-01T00:06:50;9.98;;;3.78;;
51780;SDS011;37844;57.126;24.288;2023-08-01T00:09:34;5.85;;;3.75;;
51780;SDS011;37844;57.126;24.288;2023-08-01T00:12:18;9.07;;;3.88;;
51780;SDS011;37844;57.126;24.288;2023-08-01T00:15:02;10.45;;;3.75;;
51780;SDS011;37844;57.126;24.288;2023-08-01T00:17:47;7.57;;;4.43;;
51780;SDS011;37844;57.126;24.288;2023-08-01T00:20:31;8.60;;;3.25;;
51780;SDS011;37844;57.126;24.288;2023-08-01T00:23:15;9.05;;;3.83;;
51780;SDS011;37844;57.126;24.288;2023-08-01T00:25:59;8.32;;;4.35;;
51780;SDS011;37844;57.126;24.288;2023-08-01T00:28:43;9.32;;;3.58;;
51780;SDS011;37844;57.126;24.288;2023-08-01T00:31:27;5.90;;;3.40;;
51780;SDS011;37844;57.126;24.288;2023-08-01T00:34:11;9.68;;;3.65;;
51780;SDS011;37844;57.126;24.288;2023-08-01T00:36:56;33.75;;;3.85;;
51780;SDS011;37844;57.126;24.288;2023-08-01T00:39:41;8.05;;;3.67;;
51780;SDS011;37844;57.126;24.288;2023-08-01T00:42:25;12.82;;;3.85;;
51780;SDS011;37844;57.126;24.288;2023-08-01T00:45:09;4.38;;;3.17;;
51780;SDS011;37844;57.126;24.288;2023-08-01T00:47:54;10.70;;;3.67;;
51780;SDS011;37844;57.126;24.288;2023-08-01T00:50:39;7.68;;;3.67;;
51780;SDS011;37844;57.126;24.288;2023-08-01T00:53:24;6.50;;;3.25;;
51780;SDS011;37844;57.126;24.288;2023-08-01T00:56:09;8.18;;;3.75;;
51780;SDS011;37844;57.126;24.288;2023-08-01T00:58:52;7.70;;;5.10;;
51780;SDS011;37844;57.126;24.288;2023-08-01T01:01:36;6.45;;;3.63;;
51780;SDS011;37844;57.126;24.288;2023-08-01T01:04:20;5.25;;;3.25;;
51780;SDS011;37844;57.126;24.288;2023-08-01T01:07:06;10.93;;;3.35;;
51780;SDS011;37844;57.126;24.288;2023-08-01T01:09:50;7.53;;;3.28;;
51780;SDS011;37844;57.126;24.288;2023-08-01T01:12:35;5.97;;;2.97;;
51780;SDS011;37844;57.126;24.288;2023-08-01T01:15:19;5.20;;;3.33;;
51780;SDS011;37844;57.126;24.288;2023-08-01T01:18:03;5.63;;;3.17;;
51780;SDS011;37844;57.126;24.288;2023-08-01T01:20:47;7.35;;;3.33;;
51780;SDS011;37844;57.126;24.288;2023-08-01T01:23:31;5.45;;;3.15;;
51780;SDS011;37844;57.126;24.288;2023-08-01T01:26:17;7.13;;;3.17;;
51780;SDS011;37844;57.126;24.288;2023-08-01T01:29:04;15.93;;;3.38;;
51780;SDS011;37844;57.126;24.288;2023-08-01T01:31:49;14.05;;;3.72;;
51780;SDS011;37844;57.126;24.288;2023-08-01T01:34:33;5.70;;;3.30;;
51780;SDS011;37844;57.126;24.288;2023-08-01T01:37:17;8.20;;;3.78;;
51780;SDS011;37844;57.126;24.288;2023-08-01T01:40:01;6.90;;;3.67;;
51780;SDS011;37844;57.126;24.288;2023-08-01T01:42:47;6.60;;;3.25;;
51780;SDS011;37844;57.126;24.288;2023-08-01T01:45:32;7.32;;;3.67;;
51780;SDS011;37844;57.126;24.288;2023-08-01T01:48:16;14.18;;;4.28;;
51780;SDS011;37844;57.126;24.288;2023-08-01T01:51:08;6.35;;;3.95;;
51780;SDS011;37844;57.126;24.288;2023-08-01T01:53:52;10.23;;;3.13;;
51780;SDS011;37844;57.126;24.288;2023-08-01T01:56:36;9.93;;;3.65;;
51780;SDS011;37844;57.126;24.288;2023-08-01T01:59:20;15.73;;;4.35;;
51780;SDS011;37844;57.126;24.288;2023-08-01T02:02:04;7.05;;;3.03;;
51780;SDS011;37844;57.126;24.288;2023-08-01T02:04:49;9.07;;;3.50;;
51780;SDS011;37844;57.126;24.288;2023-08-01T02:07:33;9.27;;;3.70;;
51780;SDS011;37844;57.126;24.288;2023-08-01T02:10:18;6.60;;;3.28;;
51780;SDS011;37844;57.126;24.288;2023-08-01T02:13:02;7.93;;;3.55;;
51780;SDS011;37844;57.126;24.288;2023-08-01T02:15:46;5.72;;;3.08;;
51780;SDS011;37844;57.126;24.288;2023-08-01T02:18:30;10.48;;;3.22;;
51780;SDS011;37844;57.126;24.288;2023-08-01T02:21:14;6.28;;;3.45;;
51780;SDS011;37844;57.126;24.288;2023-08-01T02:23:58;7.35;;;3.20;;
51780;SDS011;37844;57.126;24.288;2023-08-01T02:26:42;8.13;;;2.97;;
51780;SDS011;37844;57.126;24.288;2023-08-01T02:29:26;6.47;;;3.65;;
51780;SDS011;37844;57.126;24.288;2023-08-01T02:32:10;5.30;;;2.88;;
51780;SDS011;37844;57.126;24.288;2023-08-01T02:34:54;9.02;;;3.10;;
51780;SDS011;37844;57.126;24.288;2023-08-01T02:37:38;7.28;;;3.28;;
51780;SDS011;37844;57.126;24.288;2023-08-01T02:40:22;13.07;;;3.17;;
51780;SDS011;37844;57.126;24.288;2023-08-01T02:43:09;9.20;;;2.90;;
51780;SDS011;37844;57.126;24.288;2023-08-01T02:45:53;8.20;;;2.88;;
51780;SDS011;37844;57.126;24.288;2023-08-01T02:48:37;7.05;;;2.92;;
51780;SDS011;37844;57.126;24.288;2023-08-01T02:51:21;5.65;;;2.65;;
51780;SDS011;37844;57.126;24.288;2023-08-01T02:54:05;7.68;;;3.22;;
51780;SDS011;37844;57.126;24.288;2023-08-01T02:56:49;11.05;;;3.22;;
51780;SDS011;37844;57.126;24.288;2023-08-01T02:59:33;7.15;;;3.42;;
51780;SDS011;37844;57.126;24.288;2023-08-01T03:02:17;6.35;;;2.90;;
51780;SDS011;37844;57.126;24.288;2023-08-01T03:05:01;10.95;;;2.92;;
51780;SDS011;37844;57.126;24.288;2023-08-01T03:07:48;4.15;;;2.60;;
51780;SDS011;37844;57.126;24.288;2023-08-01T03:10:32;9.90;;;3.30;;
51780;SDS011;37844;57.126;24.288;2023-08-01T03:13:16;10.32;;;3.20;;
51780;SDS011;37844;57.126;24.288;2023-08-01T03:16:00;4.35;;;2.47;;
51780;SDS011;37844;57.126;24.288;2023-08-01T03:18:44;6.70;;;2.55;;
51780;SDS011;37844;57.126;24.288;2023-08-01T03:21:28;9.27;;;2.88;;
51780;SDS011;37844;57.126;24.288;2023-08-01T03:24:12;12.18;;;3.60;;
51780;SDS011;37844;57.126;24.288;2023-08-01T03:26:56;11.13;;;2.88;;
51780;SDS011;37844;57.126;24.288;2023-08-01T03:29:40;10.45;;;3.25;;
51780;SDS011;37844;57.126;24.288;2023-08-01T03:32:24;12.35;;;2.88;;
51780;SDS011;37844;57.126;24.288;2023-08-01T03:35:08;13.77;;;3.67;;
51780;SDS011;37844;57.126;24.288;2023-08-01T03:37:52;12.32;;;4.35;;
51780;SDS011;37844;57.126;24.288;2023-08-01T03:40:36;28.73;;;5.40;;
51780;SDS011;37844;57.126;24.288;2023-08-01T03:43:20;12.40;;;3.95;;
51780;SDS011;37844;57.126;24.288;2023-08-01T03:46:07;15.35;;;7.80;;
51780;SDS011;37844;57.126;24.288;2023-08-01T03:48:51;6.30;;;2.90;;
51780;SDS011;37844;57.126;24.288;2023-08-01T03:51:35;11.90;;;2.97;;
51780;SDS011;37844;57.126;24.288;2023-08-01T03:54:19;16.27;;;3.75;;
51780;SDS011;37844;57.126;24.288;2023-08-01T03:57:03;8.07;;;2.95;;
51780;SDS011;37844;57.126;24.288;2023-08-01T03:59:48;9.15;;;3.15;;
51780;SDS011;37844;57.126;24.288;2023-08-01T04:02:32;10.43;;;3.13;;
51780;SDS011;37844;57.126;24.288;2023-08-01T04:05:16;11.95;;;2.88;;
51780;SDS011;37844;57.126;24.288;2023-08-01T04:08:00;8.40;;;3.25;;
51780;SDS011;37844;57.126;24.288;2023-08-01T04:10:44;7.47;;;3.05;;
51780;SDS011;37844;57.126;24.288;2023-08-01T04:13:28;5.28;;;2.75;;
51780;SDS011;37844;57.126;24.288;2023-08-01T04:16:11;6.53;;;3.17;;
51780;SDS011;37844;57.126;24.288;2023-08-01T04:18:56;5.85;;;2.85;;
51780;SDS011;37844;57.126;24.288;2023-08-01T04:21:40;12.13;;;3.47;;
51780;SDS011;37844;57.126;24.288;2023-08-01T04:24:24;10.18;;;4.78;;
51780;SDS011;37844;57.126;24.288;2023-08-01T04:27:09;12.80;;;5.18;;
51780;SDS011;37844;57.126;24.288;2023-08-01T04:29:53;9.85;;;3.60;;
51780;SDS011;37844;57.126;24.288;2023-08-01T04:32:38;9.70;;;2.83;;
51780;SDS011;37844;57.126;24.288;2023-08-01T04:35:22;6.95;;;2.60;;
51780;SDS011;37844;57.126;24.288;2023-08-01T04:38:06;9.50;;;2.88;;
51780;SDS011;37844;57.126;24.288;2023-08-01T04:40:52;11.98;;;3.53;;
51780;SDS011;37844;57.126;24.288;2023-08-01T04:43:36;10.65;;;3.40;;
51780;SDS011;37844;57.126;24.288;2023-08-01T04:46:20;11.98;;;4.00;;
51780;SDS011;37844;57.126;24.288;2023-08-01T04:49:03;7.68;;;3.03;;
51780;SDS011;37844;57.126;24.288;2023-08-01T04:51:51;7.70;;;4.07;;
51780;SDS011;37844;57.126;24.288;2023-08-01T04:54:35;13.02;;;3.05;;
51780;SDS011;37844;57.126;24.288;2023-08-01T04:57:19;8.68;;;2.97;;
51780;SDS011;37844;57.126;24.288;2023-08-01T05:00:04;14.27;;;3.42;;
51780;SDS011;37844;57.126;24.288;2023-08-01T05:02:48;10.07;;;2.97;;
51780;SDS011;37844;57.126;24.288;2023-08-01T05:05:32;8.15;;;3.33;;
51780;SDS011;37844;57.126;24.288;2023-08-01T05:08:16;4.70;;;1.90;;
51780;SDS011;37844;57.126;24.288;2023-08-01T05:11:00;6.40;;;2.55;;
51780;SDS011;37844;57.126;24.288;2023-08-01T05:13:44;6.10;;;2.58;;
51780;SDS011;37844;57.126;24.288;2023-08-01T05:16:28;4.55;;;2.35;;
51780;SDS011;37844;57.126;24.288;2023-08-01T05:19:12;7.43;;;3.08;;
51780;SDS011;37844;57.126;24.288;2023-08-01T05:21:56;9.40;;;3.03;;
51780;SDS011;37844;57.126;24.288;2023-08-01T05:24:41;7.78;;;2.85;;
51780;SDS011;37844;57.126;24.288;2023-08-01T05:27:25;8.13;;;3.67;;
51780;SDS011;37844;57.126;24.288;2023-08-01T05:30:09;7.63;;;2.70;;
51780;SDS011;37844;57.126;24.288;2023-08-01T05:32:53;6.30;;;2.92;;
51780;SDS011;37844;57.126;24.288;2023-08-01T05:35:37;7.97;;;2.30;;
51780;SDS011;37844;57.126;24.288;2023-08-01T05:38:21;6.55;;;2.47;;
51780;SDS011;37844;57.126;24.288;2023-08-01T05:41:05;6.10;;;2.92;;
51780;SDS011;37844;57.126;24.288;2023-08-01T05:43:50;7.38;;;2.50;;
51780;SDS011;37844;57.126;24.288;2023-08-01T05:46:35;8.68;;;2.78;;
51780;SDS011;37844;57.126;24.288;2023-08-01T05:49:19;5.97;;;2.38;;
51780;SDS011;37844;57.126;24.288;2023-08-01T05:52:04;5.07;;;2.67;;
51780;SDS011;37844;57.126;24.288;2023-08-01T05:54:49;10.50;;;2.83;;
51780;SDS011;37844;57.126;24.288;2023-08-01T05:57:33;5.78;;;2.30;;
51780;SDS011;37844;57.126;24.288;2023-08-01T06:00:18;8.73;;;2.53;;
51780;SDS011;37844;57.126;24.288;2023-08-01T06:03:05;7.18;;;2.15;;
51780;SDS011;37844;57.126;24.288;2023-08-01T06:05:49;13.75;;;3.47;;
51780;SDS011;37844;57.126;24.288;2023-08-01T06:08:33;14.40;;;3.65;;
51780;SDS011;37844;57.126;24.288;2023-08-01T06:11:18;7.78;;;2.75;;
51780;SDS011;37844;57.126;24.288;2023-08-01T06:14:03;8.20;;;3.17;;
51780;SDS011;37844;57.126;24.288;2023-08-01T06:16:47;10.07;;;3.47;;
51780;SDS011;37844;57.126;24.288;2023-08-01T06:19:31;6.05;;;2.55;;
51780;SDS011;37844;57.126;24.288;2023-08-01T06:22:15;5.60;;;3.00;;
51780;SDS011;37844;57.126;24.288;2023-08-01T06:24:59;8.73;;;2.97;;
51780;SDS011;37844;57.126;24.288;2023-08-01T06:27:43;7.25;;;2.28;;
51780;SDS011;37844;57.126;24.288;2023-08-01T06:30:27;6.90;;;2.80;;
51780;SDS011;37844;57.126;24.288;2023-08-01T06:33:11;9.05;;;3.33;;
51780;SDS011;37844;57.126;24.288;2023-08-01T06:35:55;6.10;;;3.13;;
51780;SDS011;37844;57.126;24.288;2023-08-01T06:38:39;11.73;;;3.33;;
51780;SDS011;37844;57.126;24.288;2023-08-01T06:41:23;9.07;;;3.72;;
51780;SDS011;37844;57.126;24.288;2023-08-01T06:44:07;14.57;;;3.15;;
51780;SDS011;37844;57.126;24.288;2023-08-01T06:46:51;6.78;;;2.53;;
51780;SDS011;37844;57.126;24.288;2023-08-01T06:49:35;7.60;;;2.97;;
51780;SDS011;37844;57.126;24.288;2023-08-01T06:52:19;5.68;;;2.47;;
51780;SDS011;37844;57.126;24.288;2023-08-01T06:55:03;5.10;;;2.30;;
51780;SDS011;37844;57.126;24.288;2023-08-01T06:57:47;7.00;;;2.45;;
51780;SDS011;37844;57.126;24.288;2023-08-01T07:00:31;7.53;;;2.95;;
51780;SDS011;37844;57.126;24.288;2023-08-01T07:03:15;11.00;;;2.78;;
51780;SDS011;37844;57.126;24.288;2023-08-01T07:05:59;9.45;;;3.50;;
51780;SDS011;37844;57.126;24.288;2023-08-01T07:08:43;9.38;;;3.00;;
51780;SDS011;37844;57.126;24.288;2023-08-01T07:11:27;8.95;;;2.53;;
51780;SDS011;37844;57.126;24.288;2023-08-01T07:14:11;7.22;;;3.15;;
51780;SDS011;37844;57.126;24.288;2023-08-01T07:16:55;8.73;;;2.97;;
51780;SDS011;37844;57.126;24.288;2023-08-01T07:19:39;12.43;;;2.92;;
51780;SDS011;37844;57.126;24.288;2023-08-01T07:22:23;5.47;;;2.47;;
51780;SDS011;37844;57.126;24.288;2023-08-01T07:25:07;5.82;;;2.63;;
51780;SDS011;37844;57.126;24.288;2023-08-01T07:27:52;5.97;;;3.28;;
51780;SDS011;37844;57.126;24.288;2023-08-01T07:30:36;5.25;;;2.67;;
51780;SDS011;37844;57.126;24.288;2023-08-01T07:33:20;6.22;;;3.65;;
51780;SDS011;37844;57.126;24.288;2023-08-01T07:36:04;9.43;;;2.55;;
51780;SDS011;37844;57.126;24.288;2023-08-01T07:38:48;7.40;;;3.35;;
51780;SDS011;37844;57.126;24.288;2023-08-01T07:41:32;5.97;;;3.15;;
51780;SDS011;37844;57.126;24.288;2023-08-01T07:44:18;5.40;;;2.47;;
51780;SDS011;37844;57.126;24.288;2023-08-01T07:47:02;13.52;;;2.70;;
51780;SDS011;37844;57.126;24.288;2023-08-01T07:49:46;19.83;;;3.03;;
51780;SDS011;37844;57.126;24.288;2023-08-01T07:52:30;10.43;;;3.83;;
51780;SDS011;37844;57.126;24.288;2023-08-01T07:55:14;6.45;;;2.95;;
51780;SDS011;37844;57.126;24.288;2023-08-01T07:57:59;8.85;;;2.53;;
51780;SDS011;37844;57.126;24.288;2023-08-01T08:00:43;8.25;;;2.53;;
51780;SDS011;37844;57.126;24.288;2023-08-01T08:03:27;11.25;;;3.13;;
51780;SDS011;37844;57.126;24.288;2023-08-01T08:06:11;14.88;;;3.00;;
51780;SDS011;37844;57.126;24.288;2023-08-01T08:08:55;7.60;;;3.33;;
51780;SDS011;37844;57.126;24.288;2023-08-01T08:11:39;10.43;;;2.72;;
51780;SDS011;37844;57.126;24.288;2023-08-01T08:14:23;10.32;;;3.28;;
51780;SDS011;37844;57.126;24.288;2023-08-01T08:17:07;10.63;;;3.78;;
51780;SDS011;37844;57.126;24.288;2023-08-01T08:19:51;8.70;;;3.42;;
51780;SDS011;37844;57.126;24.288;2023-08-01T08:22:35;8.20;;;3.55;;
51780;SDS011;37844;57.126;24.288;2023-08-01T08:25:19;9.60;;;2.78;;
51780;SDS011;37844;57.126;24.288;2023-08-01T08:28:03;19.80;;;3.20;;
51780;SDS011;37844;57.126;24.288;2023-08-01T08:30:47;6.85;;;2.75;;
51780;SDS011;37844;57.126;24.288;2023-08-01T08:33:30;7.32;;;2.25;;
51780;SDS011;37844;57.126;24.288;2023-08-01T08:36:14;12.20;;;3.30;;
51780;SDS011;37844;57.126;24.288;2023-08-01T08:38:58;10.02;;;2.95;;
51780;SDS011;37844;57.126;24.288;2023-08-01T08:41:48;7.35;;;3.13;;
51780;SDS011;37844;57.126;24.288;2023-08-01T08:44:34;6.10;;;2.60;;
51780;SDS011;37844;57.126;24.288;2023-08-01T08:47:26;12.85;;;4.20;;
51780;SDS011;37844;57.126;24.288;2023-08-01T08:50:12;10.02;;;2.92;;
51780;SDS011;37844;57.126;24.288;2023-08-01T08:52:57;6.47;;;2.88;;
51780;SDS011;37844;57.126;24.288;2023-08-01T08:55:42;9.77;;;3.03;;
51780;SDS011;37844;57.126;24.288;2023-08-01T08:58:28;8.48;;;2.83;;
51780;SDS011;37844;57.126;24.288;2023-08-01T09:01:14;6.50;;;3.05;;
51780;SDS011;37844;57.126;24.288;2023-08-01T09:04:00;10.65;;;2.63;;
51780;SDS011;37844;57.126;24.288;2023-08-01T09:06:45;12.98;;;2.83;;
51780;SDS011;37844;57.126;24.288;2023-08-01T09:09:32;7.22;;;2.97;;
51780;SDS011;37844;57.126;24.288;2023-08-01T09:12:16;6.55;;;3.10;;
51780;SDS011;37844;57.126;24.288;2023-08-01T09:15:01;8.35;;;3.42;;
51780;SDS011;37844;57.126;24.288;2023-08-01T09:17:51;8.50;;;2.92;;
51780;SDS011;37844;57.126;24.288;2023-08-01T09:20:45;7.72;;;2.63;;
51780;SDS011;37844;57.126;24.288;2023-08-01T09:23:30;5.30;;;2.78;;
51780;SDS011;37844;57.126;24.288;2023-08-01T09:26:21;5.82;;;2.58;;
51780;SDS011;37844;57.126;24.288;2023-08-01T09:29:05;7.65;;;3.35;;
51780;SDS011;37844;57.126;24.288;2023-08-01T09:31:49;5.13;;;2.67;;
51780;SDS011;37844;57.126;24.288;2023-08-01T09:34:34;9.50;;;3.63;;
51780;SDS011;37844;57.126;24.288;2023-08-01T09:37:18;9.00;;;4.30;;
51780;SDS011;37844;57.126;24.288;2023-08-01T09:40:01;6.35;;;3.65;;
51780;SDS011;37844;57.126;24.288;2023-08-01T09:42:46;6.85;;;2.70;;
51780;SDS011;37844;57.126;24.288;2023-08-01T09:45:30;7.80;;;3.13;;
51780;SDS011;37844;57.126;24.288;2023-08-01T09:48:21;6.93;;;3.03;;
51780;SDS011;37844;57.126;24.288;2023-08-01T09:51:13;8.85;;;3.55;;
51780;SDS011;37844;57.126;24.288;2023-08-01T09:53:58;9.55;;;2.78;;
51780;SDS011;37844;57.126;24.288;2023-08-01T09:56:45;14.30;;;3.22;;
51780;SDS011;37844;57.126;24.288;2023-08-01T09:59:32;8.98;;;3.20;;
51780;SDS011;37844;57.126;24.288;2023-08-01T10:02:17;15.43;;;3.40;;
51780;SDS011;37844;57.126;24.288;2023-08-01T10:05:07;12.32;;;2.80;;
51780;SDS011;37844;57.126;24.288;2023-08-01T10:07:51;10.80;;;3.50;;
51780;SDS011;37844;57.126;24.288;2023-08-01T10:10:37;6.28;;;2.90;;
51780;SDS011;37844;57.126;24.288;2023-08-01T10:13:22;5.40;;;2.75;;
51780;SDS011;37844;57.126;24.288;2023-08-01T10:16:08;6.10;;;3.15;;
51780;SDS011;37844;57.126;24.288;2023-08-01T10:18:52;4.63;;;3.05;;
51780;SDS011;37844;57.126;24.288;2023-08-01T10:21:38;9.95;;;3.80;;
51780;SDS011;37844;57.126;24.288;2023-08-01T10:24:23;8.93;;;3.08;;
51780;SDS011;37844;57.126;24.288;2023-08-01T10:27:18;21.17;;;3.58;;
51780;SDS011;37844;57.126;24.288;2023-08-01T10:30:04;12.00;;;3.28;;
51780;SDS011;37844;57.126;24.288;2023-08-01T10:32:53;9.88;;;3.58;;
51780;SDS011;37844;57.126;24.288;2023-08-01T10:35:39;8.18;;;2.88;;
51780;SDS011;37844;57.126;24.288;2023-08-01T10:38:23;10.32;;;3.08;;
51780;SDS011;37844;57.126;24.288;2023-08-01T10:41:11;12.23;;;4.05;;
51780;SDS011;37844;57.126;24.288;2023-08-01T10:44:14;4.03;;;2.42;;
51780;SDS011;37844;57.126;24.288;2023-08-01T10:47:00;8.55;;;4.90;;
51780;SDS011;37844;57.126;24.288;2023-08-01T10:49:45;5.75;;;3.20;;
51780;SDS011;37844;57.126;24.288;2023-08-01T10:52:29;11.73;;;3.42;;
51780;SDS011;37844;57.126;24.288;2023-08-01T10:55:13;9.45;;;3.65;;
51780;SDS011;37844;57.126;24.288;2023-08-01T10:57:57;10.77;;;3.97;;
51780;SDS011;37844;57.126;24.288;2023-08-01T11:00:42;14.43;;;4.57;;
51780;SDS011;37844;57.126;24.288;2023-08-01T11:03:36;11.98;;;4.80;;
51780;SDS011;37844;57.126;24.288;2023-08-01T11:06:21;22.25;;;4.97;;
51780;SDS011;37844;57.126;24.288;2023-08-01T11:09:14;11.02;;;4.78;;
51780;SDS011;37844;57.126;24.288;2023-08-01T11:12:02;7.72;;;3.33;;
51780;SDS011;37844;57.126;24.288;2023-08-01T11:14:47;7.72;;;4.00;;
51780;SDS011;37844;57.126;24.288;2023-08-01T11:17:31;9.43;;;3.67;;
51780;SDS011;37844;57.126;24.288;2023-08-01T11:20:17;12.73;;;4.18;;
51780;SDS011;37844;57.126;24.288;2023-08-01T11:23:04;14.13;;;4.25;;
51780;SDS011;37844;57.126;24.288;2023-08-01T11:25:49;9.65;;;4.00;;
51780;SDS011;37844;57.126;24.288;2023-08-01T11:28:34;7.15;;;4.13;;
51780;SDS011;37844;57.126;24.288;2023-08-01T11:31:19;9.85;;;4.45;;
51780;SDS011;37844;57.126;24.288;2023-08-01T11:34:03;10.63;;;3.80;;
51780;SDS011;37844;57.126;24.288;2023-08-01T11:36:47;9.15;;;3.30;;
51780;SDS011;37844;57.126;24.288;2023-08-01T11:39:31;7.47;;;3.50;;
51780;SDS011;37844;57.126;24.288;2023-08-01T11:42:15;19.40;;;3.92;;
51780;SDS011;37844;57.126;24.288;2023-08-01T11:45:10;10.25;;;4.18;;
51780;SDS011;37844;57.126;24.288;2023-08-01T11:47:55;12.95;;;3.95;;
51780;SDS011;37844;57.126;24.288;2023-08-01T11:50:39;10.65;;;3.97;;
51780;SDS011;37844;57.126;24.288;2023-08-01T11:53:24;12.95;;;4.75;;
51780;SDS011;37844;57.126;24.288;2023-08-01T11:56:08;10.73;;;3.85;;
51780;SDS011;37844;57.126;24.288;2023-08-01T12:01:58;10.00;;;4.30;;
51780;SDS011;37844;57.126;24.288;2023-08-01T12:04:41;16.67;;;4.65;;
51780;SDS011;37844;57.126;24.288;2023-08-01T12:07:29;10.35;;;4.03;;
51780;SDS011;37844;57.126;24.288;2023-08-01T12:10:14;10.90;;;4.10;;
51780;SDS011;37844;57.126;24.288;2023-08-01T12:12:58;8.93;;;4.05;;
51780;SDS011;37844;57.126;24.288;2023-08-01T12:15:42;18.25;;;4.55;;
51780;SDS011;37844;57.126;24.288;2023-08-01T12:18:27;13.85;;;5.25;;
51780;SDS011;37844;57.126;24.288;2023-08-01T12:21:12;13.35;;;5.55;;
51780;SDS011;37844;57.126;24.288;2023-08-01T12:23:56;15.80;;;4.95;;
51780;SDS011;37844;57.126;24.288;2023-08-01T12:26:40;13.23;;;5.32;;
51780;SDS011;37844;57.126;24.288;2023-08-01T12:29:25;15.82;;;6.20;;
51780;SDS011;37844;57.126;24.288;2023-08-01T12:32:16;19.00;;;6.82;;
51780;SDS011;37844;57.126;24.288;2023-08-01T12:34:59;21.27;;;6.10;;
51780;SDS011;37844;57.126;24.288;2023-08-01T12:37:43;18.63;;;6.38;;
51780;SDS011;37844;57.126;24.288;2023-08-01T12:40:27;15.73;;;5.85;;
51780;SDS011;37844;57.126;24.288;2023-08-01T12:43:11;9.48;;;5.03;;
51780;SDS011;37844;57.126;24.288;2023-08-01T12:45:56;9.88;;;5.10;;
51780;SDS011;37844;57.126;24.288;2023-08-01T12:48:42;10.85;;;5.15;;
51780;SDS011;37844;57.126;24.288;2023-08-01T12:51:27;14.90;;;5.53;;
51780;SDS011;37844;57.126;24.288;2023-08-01T12:54:11;13.30;;;5.47;;
51780;SDS011;37844;57.126;24.288;2023-08-01T12:56:55;17.48;;;5.18;;
51780;SDS011;37844;57.126;24.288;2023-08-01T12:59:39;8.73;;;4.80;;
51780;SDS011;37844;57.126;24.288;2023-08-01T13:02:23;13.48;;;5.55;;
51780;SDS011;37844;57.126;24.288;2023-08-01T13:05:07;15.18;;;5.97;;
51780;SDS011;37844;57.126;24.288;2023-08-01T13:07:51;11.32;;;5.00;;
51780;SDS011;37844;57.126;24.288;2023-08-01T13:10:36;19.70;;;5.68;;
51780;SDS011;37844;57.126;24.288;2023-08-01T13:13:22;18.23;;;4.78;;
51780;SDS011;37844;57.126;24.288;2023-08-01T13:16:06;13.45;;;4.30;;
51780;SDS011;37844;57.126;24.288;2023-08-01T13:18:50;13.82;;;5.50;;
51780;SDS011;37844;57.126;24.288;2023-08-01T13:21:34;10.68;;;5.07;;
51780;SDS011;37844;57.126;24.288;2023-08-01T13:24:17;9.55;;;4.18;;
51780;SDS011;37844;57.126;24.288;2023-08-01T13:27:01;9.75;;;4.60;;
51780;SDS011;37844;57.126;24.288;2023-08-01T13:29:45;8.43;;;4.50;;
51780;SDS011;37844;57.126;24.288;2023-08-01T13:32:29;15.75;;;5.03;;
51780;SDS011;37844;57.126;24.288;2023-08-01T13:35:14;15.65;;;5.30;;
51780;SDS011;37844;57.126;24.288;2023-08-01T13:37:58;11.60;;;4.85;;
51780;SDS011;37844;57.126;24.288;2023-08-01T13:40:42;8.25;;;4.47;;
51780;SDS011;37844;57.126;24.288;2023-08-01T13:43:27;9.75;;;4.30;;
51780;SDS011;37844;57.126;24.288;2023-08-01T13:48:59;13.00;;;4.43;;
51780;SDS011;37844;57.126;24.288;2023-08-01T13:51:43;9.15;;;5.00;;
51780;SDS011;37844;57.126;24.288;2023-08-01T13:54:27;7.93;;;3.85;;
51780;SDS011;37844;57.126;24.288;2023-08-01T13:57:11;12.23;;;5.93;;
51780;SDS011;37844;57.126;24.288;2023-08-01T13:59:55;16.65;;;4.68;;
51780;SDS011;37844;57.126;24.288;2023-08-01T14:02:39;14.90;;;6.28;;
51780;SDS011;37844;57.126;24.288;2023-08-01T14:05:26;15.85;;;5.35;;
51780;SDS011;37844;57.126;24.288;2023-08-01T14:08:11;11.38;;;5.50;;
51780;SDS011;37844;57.126;24.288;2023-08-01T14:10:55;8.50;;;5.10;;
51780;SDS011;37844;57.126;24.288;2023-08-01T14:13:39;15.77;;;6.32;;
51780;SDS011;37844;57.126;24.288;2023-08-01T14:16:23;10.88;;;5.78;;
51780;SDS011;37844;57.126;24.288;2023-08-01T14:19:07;10.95;;;4.93;;
51780;SDS011;37844;57.126;24.288;2023-08-01T14:21:51;15.45;;;5.63;;
51780;SDS011;37844;57.126;24.288;2023-08-01T14:24:35;9.88;;;5.15;;
51780;SDS011;37844;57.126;24.288;2023-08-01T14:27:27;14.15;;;5.32;;
51780;SDS011;37844;57.126;24.288;2023-08-01T14:30:18;13.38;;;5.63;;
51780;SDS011;37844;57.126;24.288;2023-08-01T14:33:09;10.90;;;5.47;;
51780;SDS011;37844;57.126;24.288;2023-08-01T14:35:54;17.67;;;6.00;;
51780;SDS011;37844;57.126;24.288;2023-08-01T14:38:38;10.48;;;4.85;;
51780;SDS011;37844;57.126;24.288;2023-08-01T14:41:23;18.20;;;5.25;;
51780;SDS011;37844;57.126;24.288;2023-08-01T14:44:07;11.68;;;4.93;;
51780;SDS011;37844;57.126;24.288;2023-08-01T14:46:51;16.02;;;4.95;;
51780;SDS011;37844;57.126;24.288;2023-08-01T14:49:38;10.32;;;4.82;;
51780;SDS011;37844;57.126;24.288;2023-08-01T14:52:22;16.98;;;5.97;;
51780;SDS011;37844;57.126;24.288;2023-08-01T14:55:06;13.57;;;5.13;;
51780;SDS011;37844;57.126;24.288;2023-08-01T14:57:51;9.82;;;4.85;;
51780;SDS011;37844;57.126;24.288;2023-08-01T15:00:35;14.93;;;5.32;;
51780;SDS011;37844;57.126;24.288;2023-08-01T15:03:19;10.52;;;5.43;;
51780;SDS011;37844;57.126;24.288;2023-08-01T15:06:07;13.80;;;5.07;;
51780;SDS011;37844;57.126;24.288;2023-08-01T15:08:52;12.48;;;5.57;;
51780;SDS011;37844;57.126;24.288;2023-08-01T15:11:35;12.88;;;5.30;;
51780;SDS011;37844;57.126;24.288;2023-08-01T15:14:20;10.25;;;4.95;;
51780;SDS011;37844;57.126;24.288;2023-08-01T15:17:04;15.75;;;4.88;;
51780;SDS011;37844;57.126;24.288;2023-08-01T15:19:48;9.80;;;5.22;;
51780;SDS011;37844;57.126;24.288;2023-08-01T15:22:33;10.30;;;4.78;;
51780;SDS011;37844;57.126;24.288;2023-08-01T15:25:17;10.68;;;5.43;;
51780;SDS011;37844;57.126;24.288;2023-08-01T15:28:00;10.32;;;5.10;;
51780;SDS011;37844;57.126;24.288;2023-08-01T15:30:44;10.48;;;5.20;;
51780;SDS011;37844;57.126;24.288;2023-08-01T15:33:29;8.85;;;5.25;;
51780;SDS011;37844;57.126;24.288;2023-08-01T15:36:15;20.15;;;5.50;;
51780;SDS011;37844;57.126;24.288;2023-08-01T15:39:00;13.00;;;6.18;;
51780;SDS011;37844;57.126;24.288;2023-08-01T15:41:45;14.07;;;4.95;;
51780;SDS011;37844;57.126;24.288;2023-08-01T15:44:31;11.30;;;6.65;;
51780;SDS011;37844;57.126;24.288;2023-08-01T15:47:14;15.35;;;5.07;;
51780;SDS011;37844;57.126;24.288;2023-08-01T15:49:58;15.57;;;5.30;;
51780;SDS011;37844;57.126;24.288;2023-08-01T15:52:42;10.45;;;5.55;;
51780;SDS011;37844;57.126;24.288;2023-08-01T15:55:26;13.68;;;5.53;;
51780;SDS011;37844;57.126;24.288;2023-08-01T15:58:10;12.80;;;4.97;;
51780;SDS011;37844;57.126;24.288;2023-08-01T16:00:55;10.43;;;5.82;;
51780;SDS011;37844;57.126;24.288;2023-08-01T16:03:41;14.57;;;5.72;;
51780;SDS011;37844;57.126;24.288;2023-08-01T16:06:26;10.63;;;5.70;;
51780;SDS011;37844;57.126;24.288;2023-08-01T16:09:10;19.75;;;6.65;;
51780;SDS011;37844;57.126;24.288;2023-08-01T16:11:54;14.73;;;5.32;;
51780;SDS011;37844;57.126;24.288;2023-08-01T16:14:38;11.95;;;6.35;;
51780;SDS011;37844;57.126;24.288;2023-08-01T16:17:22;16.10;;;5.72;;